createdAt,value
2022-11-12T00:00:34.859Z,0.60
2022-11-12T00:03:00.926Z,0.90
2022-11-12T00:05:27.013Z,0.80
2022-11-12T00:07:52.964Z,1.05
2022-11-12T00:10:18.777Z,0.60
2022-11-12T00:12:44.607Z,0.65
2022-11-12T00:15:10.999Z,0.70
2022-11-12T00:17:37.596Z,0.70
2022-11-12T00:20:03.902Z,0.77
2022-11-12T00:22:29.644Z,0.80
2022-11-12T00:24:55.379Z,0.60
2022-11-12T00:27:21.857Z,0.85
2022-11-12T00:29:47.673Z,0.98
2022-11-12T00:32:13.558Z,1.13
2022-11-12T00:34:39.500Z,0.82
2022-11-12T00:37:05.831Z,0.70
2022-11-12T00:39:31.913Z,1.00
2022-11-12T00:41:58.022Z,0.65
2022-11-12T00:44:23.807Z,1.17
2022-11-12T00:46:49.903Z,0.85
2022-11-12T00:49:16.260Z,0.90
2022-11-12T00:51:42.651Z,0.77
2022-11-12T00:54:08.482Z,0.95
2022-11-12T00:56:35.594Z,1.02
2022-11-12T00:59:02.895Z,0.77
2022-11-12T01:01:28.861Z,1.48
2022-11-12T01:03:57.469Z,0.70
2022-11-12T01:06:23.805Z,1.20
2022-11-12T01:08:50.272Z,0.73
2022-11-12T01:11:23.763Z,0.60
2022-11-12T01:14:01.234Z,1.27
2022-11-12T01:16:30.769Z,0.82
2022-11-12T01:18:58.803Z,0.82
2022-11-12T01:21:27.017Z,1.00
2022-11-12T01:23:53.047Z,0.70
2022-11-12T01:26:21.887Z,0.82
2022-11-12T01:28:48.200Z,1.42
2022-11-12T01:31:20.291Z,0.80
2022-11-12T01:33:47.778Z,0.82
2022-11-12T01:36:15.799Z,1.15
2022-11-12T01:38:43.401Z,0.82
2022-11-12T01:41:31.236Z,0.80
2022-11-12T01:44:13.889Z,0.85
2022-11-12T01:46:48.588Z,0.80
2022-11-12T01:49:25.441Z,0.77
2022-11-12T01:51:53.964Z,1.00
2022-11-12T01:54:21.600Z,1.17
2022-11-12T01:56:50.066Z,1.02
2022-11-12T01:59:28.298Z,0.90
2022-11-12T02:01:54.231Z,0.70
2022-11-12T02:04:20.894Z,0.73
2022-11-12T02:06:48.210Z,0.80
2022-11-12T02:09:14.179Z,0.75
2022-11-12T02:11:40.116Z,1.10
2022-11-12T02:14:06.192Z,0.95
2022-11-12T02:16:38.259Z,0.90
2022-11-12T02:19:06.746Z,1.02
2022-11-12T02:21:33.101Z,1.38
2022-11-12T02:24:12.922Z,0.90
2022-11-12T02:26:45.306Z,0.95
2022-11-12T02:29:11.102Z,0.90
2022-11-12T02:31:36.895Z,0.93
2022-11-12T02:34:03.096Z,1.00
2022-11-12T02:36:29.442Z,0.95
2022-11-12T02:38:55.287Z,0.98
2022-11-12T02:41:21.115Z,1.23
2022-11-12T02:43:46.926Z,0.70
2022-11-12T02:46:13.625Z,0.85
2022-11-12T02:48:39.360Z,0.93
2022-11-12T02:51:05.738Z,1.05
2022-11-12T02:53:31.826Z,1.13
2022-11-12T02:55:58.486Z,0.50
2022-11-12T02:58:24.692Z,1.42
2022-11-12T03:00:50.992Z,1.00
2022-11-12T03:03:16.904Z,0.80
2022-11-12T03:05:43.894Z,0.93
2022-11-12T03:08:09.986Z,0.90
2022-11-12T03:10:39.777Z,0.82
2022-11-12T03:13:05.965Z,0.90
2022-11-12T03:15:31.876Z,0.90
2022-11-12T03:17:58.511Z,0.85
2022-11-12T03:20:25.054Z,1.00
2022-11-12T03:22:56.431Z,0.80
2022-11-12T03:25:22.319Z,1.00
2022-11-12T03:27:48.080Z,0.90
2022-11-12T03:30:13.984Z,0.90
2022-11-12T03:32:39.699Z,0.73
2022-11-12T03:35:05.963Z,1.20
2022-11-12T03:37:31.702Z,0.88
2022-11-12T03:39:57.504Z,0.90
2022-11-12T03:42:23.247Z,0.82
2022-11-12T03:44:48.943Z,1.15
2022-11-12T03:47:14.741Z,0.80
2022-11-12T03:49:40.473Z,0.80
2022-11-12T03:52:06.275Z,1.27
2022-11-12T03:54:32.006Z,0.88
2022-11-12T03:56:57.769Z,0.88
2022-11-12T03:59:24.283Z,1.30
2022-11-12T04:01:50.037Z,1.33
2022-11-12T04:04:15.761Z,1.00
2022-11-12T04:06:59.871Z,1.20
2022-11-12T04:09:25.654Z,0.70
2022-11-12T04:11:51.410Z,0.80
2022-11-12T04:14:17.296Z,0.90
2022-11-12T04:17:01.638Z,0.90
2022-11-12T04:19:45.941Z,1.08
2022-11-12T04:22:11.842Z,1.10
2022-11-12T04:24:58.856Z,0.95
2022-11-12T04:27:30.190Z,1.02
2022-11-12T04:30:15.457Z,0.98
2022-11-12T04:32:53.707Z,1.00
2022-11-12T04:35:21.474Z,1.50
2022-11-12T04:37:47.952Z,1.35
2022-11-12T04:40:40.935Z,1.25
2022-11-12T04:43:28.270Z,0.98
2022-11-12T04:45:54.509Z,0.90
2022-11-12T04:48:21.435Z,1.10
2022-11-12T04:50:53.016Z,1.15
2022-11-12T04:53:18.857Z,1.08
2022-11-12T04:55:44.652Z,0.90
2022-11-12T04:58:11.291Z,1.00
2022-11-12T05:00:37.105Z,0.75
2022-11-12T05:03:02.888Z,0.80
2022-11-12T05:05:33.616Z,1.45
2022-11-12T05:08:01.151Z,0.82
2022-11-12T05:10:27.195Z,0.95
2022-11-12T05:12:52.971Z,0.85
2022-11-12T05:15:18.834Z,0.82
2022-11-12T05:17:45.043Z,0.70
2022-11-12T05:20:11.708Z,0.70
2022-11-12T05:22:45.594Z,2.63
2022-11-12T05:25:16.384Z,1.88
2022-11-12T05:27:42.162Z,0.80
2022-11-12T05:30:08.564Z,0.98
2022-11-12T05:32:34.318Z,0.90
2022-11-12T05:35:00.121Z,0.73
2022-11-12T05:37:25.841Z,0.80
2022-11-12T05:39:51.598Z,0.68
2022-11-12T05:42:17.377Z,1.17
2022-11-12T05:44:43.173Z,1.10
2022-11-12T05:47:08.948Z,1.08
2022-11-12T05:49:34.737Z,1.20
2022-11-12T05:52:00.616Z,1.00
2022-11-12T05:54:26.425Z,0.80
2022-11-12T05:56:52.916Z,0.88
2022-11-12T05:59:18.798Z,0.75
2022-11-12T06:01:44.524Z,1.10
2022-11-12T06:04:14.539Z,3.50
2022-11-12T06:06:41.731Z,0.85
2022-11-12T06:09:08.654Z,0.82
2022-11-12T06:11:34.568Z,0.75
2022-11-12T06:14:01.379Z,0.80
2022-11-12T06:16:27.822Z,0.90
2022-11-12T06:18:53.642Z,1.08
2022-11-12T06:21:19.377Z,0.80
2022-11-12T06:23:46.184Z,0.82
2022-11-12T06:26:12.485Z,1.00
2022-11-12T06:28:38.503Z,1.00
2022-11-12T06:31:04.360Z,1.23
2022-11-12T06:33:30.202Z,1.70
2022-11-12T06:36:02.268Z,1.20
2022-11-12T06:38:32.934Z,1.60
2022-11-12T06:40:58.946Z,2.80
2022-11-12T06:43:25.340Z,1.30
2022-11-12T06:45:51.519Z,0.98
2022-11-12T06:48:17.265Z,0.80
2022-11-12T06:50:43.133Z,0.90
2022-11-12T06:53:08.898Z,1.40
2022-11-12T06:55:34.720Z,1.67
2022-11-12T06:58:00.742Z,1.35
2022-11-12T07:00:26.568Z,1.55
2022-11-12T07:02:52.369Z,1.42
2022-11-12T07:05:18.243Z,0.80
2022-11-12T07:07:44.006Z,1.10
2022-11-12T07:10:09.819Z,0.85
2022-11-12T07:12:35.587Z,1.05
2022-11-12T07:15:01.390Z,1.42
2022-11-12T07:17:27.149Z,0.80
2022-11-12T07:19:52.955Z,1.10
2022-11-12T07:22:18.735Z,1.00
2022-11-12T07:24:44.548Z,0.98
2022-11-12T07:27:10.280Z,0.70
2022-11-12T07:29:47.630Z,0.60
2022-11-12T07:32:14.101Z,2.28
2022-11-12T07:34:39.844Z,1.45
2022-11-12T07:37:05.615Z,0.90
2022-11-12T07:39:31.354Z,0.68
2022-11-12T07:41:57.083Z,0.70
2022-11-12T07:44:22.934Z,0.60
2022-11-12T07:46:48.677Z,0.85
2022-11-12T07:49:14.622Z,0.77
2022-11-12T07:51:40.394Z,0.68
2022-11-12T07:54:06.111Z,0.80
2022-11-12T07:56:31.880Z,0.73
2022-11-12T07:58:57.619Z,0.45
2022-11-12T08:01:36.675Z,0.80
2022-11-12T08:04:05.635Z,0.60
2022-11-12T08:06:32.119Z,0.80
2022-11-12T08:08:59.825Z,3.13
2022-11-12T08:11:25.898Z,0.80
2022-11-12T08:13:51.936Z,0.70
2022-11-12T08:16:18.155Z,0.70
2022-11-12T08:18:44.758Z,0.90
2022-11-12T08:21:13.113Z,0.75
2022-11-12T08:23:39.489Z,0.60
2022-11-12T08:26:08.765Z,0.50
2022-11-12T08:28:35.980Z,0.60
2022-11-12T08:31:07.566Z,0.77
2022-11-12T08:33:33.550Z,1.02
2022-11-12T08:36:06.732Z,0.63
2022-11-12T08:38:32.545Z,0.68
2022-11-12T08:41:10.510Z,0.80
2022-11-12T08:43:36.673Z,0.45
2022-11-12T08:46:03.633Z,0.50
2022-11-12T08:48:30.914Z,0.60
2022-11-12T08:50:57.143Z,0.47
2022-11-12T08:53:24.338Z,0.45
2022-11-12T08:55:54.772Z,0.60
2022-11-12T08:58:21.438Z,0.40
2022-11-12T09:00:49.171Z,0.50
2022-11-12T09:03:17.101Z,0.93
2022-11-12T09:05:43.096Z,0.63
2022-11-12T09:08:12.684Z,0.85
2022-11-12T09:10:39.347Z,0.90
2022-11-12T09:13:05.351Z,1.00
2022-11-12T09:15:37.574Z,0.90
2022-11-12T09:18:06.951Z,0.60
2022-11-12T09:20:32.751Z,0.60
2022-11-12T09:23:03.923Z,0.50
2022-11-12T09:25:29.916Z,0.38
2022-11-12T09:27:57.394Z,0.65
2022-11-12T09:30:23.359Z,0.40
2022-11-12T09:32:49.223Z,0.30
2022-11-12T09:35:15.061Z,0.40
2022-11-12T09:37:41.202Z,0.40
2022-11-12T09:40:15.388Z,0.20
2022-11-12T09:42:46.011Z,0.30
2022-11-12T09:45:30.665Z,0.47
2022-11-12T09:48:02.012Z,0.30
2022-11-12T09:50:31.685Z,0.40
2022-11-12T09:53:07.086Z,0.30
2022-11-12T09:55:38.476Z,0.40
2022-11-12T09:58:12.168Z,0.50
2022-11-12T10:00:44.981Z,0.23
2022-11-12T10:03:24.533Z,0.40
2022-11-12T10:06:00.418Z,0.35
2022-11-12T10:08:35.534Z,1.23
2022-11-12T10:11:24.018Z,0.30
2022-11-12T10:14:04.749Z,0.20
2022-11-12T10:17:07.940Z,0.30
2022-11-12T10:20:03.283Z,0.20
2022-11-12T10:22:52.861Z,0.28
2022-11-12T10:25:19.621Z,0.13
2022-11-12T10:27:46.360Z,0.40
2022-11-12T10:30:18.751Z,0.20
2022-11-12T10:32:46.817Z,0.20
2022-11-12T10:35:16.651Z,0.20
2022-11-12T10:37:46.829Z,0.20
2022-11-12T10:40:24.448Z,0.10
2022-11-12T10:43:15.512Z,0.20
2022-11-12T10:45:42.632Z,0.10
2022-11-12T10:48:27.222Z,0.13
2022-11-12T10:50:54.274Z,0.40
2022-11-12T10:53:37.775Z,0.50
2022-11-12T10:56:20.568Z,0.13
2022-11-12T10:59:08.243Z,0.20
2022-11-12T11:01:35.950Z,0.40
2022-11-12T11:04:02.357Z,0.40
2022-11-12T11:06:28.258Z,0.30
2022-11-12T11:09:17.033Z,0.30
2022-11-12T11:11:51.249Z,0.25
2022-11-12T11:14:24.923Z,0.20
2022-11-12T11:19:18.739Z,0.20
2022-11-12T11:21:50.492Z,0.20
2022-11-12T11:24:22.206Z,0.20
2022-11-12T11:27:10.940Z,0.30
2022-11-12T11:29:51.752Z,0.28
2022-11-12T11:32:43.600Z,0.40
2022-11-12T11:35:28.002Z,1.00
2022-11-12T11:38:15.412Z,1.00
2022-11-12T11:40:58.296Z,0.22
2022-11-12T11:43:27.074Z,0.28
2022-11-12T11:46:04.806Z,0.17
2022-11-12T11:49:05.217Z,0.20
2022-11-12T11:51:37.012Z,0.30
2022-11-12T11:54:33.736Z,0.20
2022-11-12T11:57:03.270Z,0.20
2022-11-12T12:00:04.253Z,0.20
2022-11-12T12:02:48.507Z,0.22
2022-11-12T12:05:38.058Z,0.10
2022-11-12T12:08:06.785Z,0.47
2022-11-12T12:11:01.732Z,0.40
2022-11-12T12:13:42.070Z,0.40
2022-11-12T12:16:16.721Z,0.30
2022-11-12T12:18:42.441Z,0.40
2022-11-12T12:21:15.436Z,0.50
2022-11-12T12:24:02.808Z,0.45
2022-11-12T12:26:39.712Z,2.78
2022-11-12T12:29:29.718Z,0.70
2022-11-12T12:32:04.601Z,0.75
2022-11-12T12:34:31.454Z,0.85
2022-11-12T12:37:05.173Z,0.68
2022-11-12T12:39:47.643Z,0.77
2022-11-12T12:42:25.738Z,0.70
2022-11-12T12:44:59.429Z,0.60
2022-11-12T12:47:27.812Z,0.60
2022-11-12T12:49:54.465Z,0.40
2022-11-12T12:52:20.252Z,0.50
2022-11-12T12:54:52.063Z,0.50
2022-11-12T12:57:37.735Z,0.65
2022-11-12T13:00:33.928Z,0.43
2022-11-12T13:03:00.057Z,0.45
2022-11-12T13:05:34.451Z,0.70
2022-11-12T13:08:09.974Z,0.70
2022-11-12T13:10:35.804Z,0.52
2022-11-12T13:13:07.434Z,0.60
2022-11-12T13:15:53.858Z,0.60
2022-11-12T13:18:37.634Z,0.50
2022-11-12T13:21:10.556Z,0.68
2022-11-12T13:24:08.539Z,0.90
2022-11-12T13:26:55.177Z,0.70
2022-11-12T13:29:26.592Z,0.50
2022-11-12T13:32:29.710Z,0.60
2022-11-12T13:35:13.989Z,0.60
2022-11-12T13:37:51.592Z,0.65
2022-11-12T13:40:42.556Z,0.80
2022-11-12T13:43:17.253Z,2.63
2022-11-12T13:45:49.640Z,0.60
2022-11-12T13:48:28.305Z,0.63
2022-11-12T13:50:58.074Z,1.00
2022-11-12T13:53:26.683Z,1.35
2022-11-12T13:55:53.828Z,0.70
2022-11-12T13:58:31.323Z,0.60
2022-11-12T14:01:00.242Z,0.73
2022-11-12T14:03:44.449Z,0.90
2022-11-12T14:06:35.562Z,0.95
2022-11-12T14:09:04.027Z,0.68
2022-11-12T14:11:38.671Z,0.95
2022-11-12T14:14:10.512Z,0.98
2022-11-12T14:16:54.594Z,1.10
2022-11-12T14:19:32.052Z,1.50
2022-11-12T14:22:12.057Z,1.00
2022-11-12T14:24:39.010Z,1.00
2022-11-12T14:27:31.999Z,0.65
2022-11-12T14:30:20.062Z,0.55
2022-11-12T14:32:58.154Z,1.10
2022-11-12T14:35:23.886Z,0.90
2022-11-12T14:38:20.608Z,0.80
2022-11-12T14:40:57.941Z,1.65
2022-11-12T14:43:37.967Z,2.40
2022-11-12T14:46:06.357Z,1.63
2022-11-12T14:48:48.162Z,1.08
2022-11-12T14:51:14.774Z,1.10
2022-11-12T14:53:51.686Z,1.55
2022-11-12T14:56:40.330Z,1.67
2022-11-12T14:59:06.531Z,2.60
2022-11-12T15:02:14.302Z,3.50
2022-11-12T15:04:25.087Z,2.72
2022-11-12T15:06:53.952Z,3.40
2022-11-12T15:09:37.802Z,3.13
2022-11-12T15:12:18.906Z,3.80
2022-11-12T15:14:44.724Z,3.58
2022-11-12T15:17:28.490Z,3.35
2022-11-12T15:20:00.752Z,3.88
2022-11-12T15:22:26.736Z,2.40
2022-11-12T15:24:52.629Z,2.90
2022-11-12T15:27:48.405Z,1.63
2022-11-12T15:30:28.963Z,1.65
2022-11-12T15:33:21.133Z,1.42
2022-11-12T15:35:55.726Z,1.60
2022-11-12T15:38:31.005Z,1.67
2022-11-12T15:40:59.135Z,1.85
2022-11-12T15:43:28.560Z,1.27
2022-11-12T15:45:55.774Z,1.73
2022-11-12T15:48:21.785Z,1.33
2022-11-12T15:50:48.061Z,2.00
2022-11-12T15:53:14.551Z,1.63
2022-11-12T15:55:42.665Z,1.58
2022-11-12T15:58:16.571Z,2.35
2022-11-12T16:00:42.656Z,2.95
2022-11-12T16:03:17.403Z,3.08
2022-11-12T16:05:43.946Z,2.00
2022-11-12T16:08:10.358Z,1.50
2022-11-12T16:10:38.752Z,1.30
2022-11-12T16:13:06.101Z,1.23
2022-11-12T16:15:32.396Z,1.23
2022-11-12T16:18:01.075Z,1.10
2022-11-12T16:20:32.864Z,1.30
2022-11-12T16:22:58.793Z,1.40
2022-11-12T16:25:29.115Z,1.60
2022-11-12T16:27:56.719Z,1.48
2022-11-12T16:30:29.075Z,1.58
2022-11-12T16:32:56.579Z,1.52
2022-11-12T16:35:22.972Z,1.52
2022-11-12T16:37:49.276Z,1.45
2022-11-12T16:40:29.912Z,1.65
2022-11-12T16:42:56.247Z,1.30
2022-11-12T16:45:24.748Z,1.20
2022-11-12T16:47:53.204Z,1.63
2022-11-12T16:50:22.373Z,1.58
2022-11-12T16:52:48.544Z,8.70
2022-11-12T16:55:15.110Z,3.50
2022-11-12T16:57:42.167Z,2.63
2022-11-12T17:00:16.856Z,1.60
2022-11-12T17:02:46.293Z,1.92
2022-11-12T17:05:19.762Z,2.75
2022-11-12T17:07:46.534Z,2.17
2022-11-12T17:10:12.915Z,2.33
2022-11-12T17:12:38.737Z,1.90
2022-11-12T17:15:05.725Z,2.15
2022-11-12T17:17:31.868Z,6.32
2022-11-12T17:19:57.752Z,7.38
2022-11-12T17:22:23.630Z,7.95
2022-11-12T17:24:49.417Z,6.38
2022-11-12T17:27:15.222Z,6.07
2022-11-12T17:29:41.228Z,6.18
2022-11-12T17:32:07.048Z,5.40
2022-11-12T17:34:33.101Z,4.72
2022-11-12T17:36:59.081Z,3.97
2022-11-12T17:39:24.895Z,3.28
2022-11-12T17:41:51.020Z,3.03
2022-11-12T17:44:18.389Z,1.92
2022-11-12T17:46:46.240Z,1.63
2022-11-12T17:49:13.552Z,1.58
2022-11-12T17:51:39.969Z,1.48
2022-11-12T17:54:06.554Z,1.50
2022-11-12T17:56:36.761Z,1.83
2022-11-12T17:59:03.610Z,1.50
2022-11-12T18:01:31.675Z,2.00
2022-11-12T18:03:58.027Z,1.50
2022-11-12T18:06:27.292Z,1.80
2022-11-12T18:08:57.278Z,1.50
2022-11-12T18:11:23.946Z,2.97
2022-11-12T18:13:50.581Z,7.72
2022-11-12T18:16:25.569Z,1.92
2022-11-12T18:18:54.014Z,1.88
2022-11-12T18:21:20.060Z,1.90
2022-11-12T18:23:47.089Z,1.70
2022-11-12T18:26:14.460Z,2.05
2022-11-12T18:28:41.816Z,1.60
2022-11-12T18:31:07.732Z,2.05
2022-11-12T18:33:36.014Z,2.05
2022-11-12T18:36:02.763Z,2.05
2022-11-12T18:38:31.073Z,2.20
2022-11-12T18:41:08.049Z,1.83
2022-11-12T18:43:35.532Z,2.13
2022-11-12T18:46:04.314Z,1.85
2022-11-12T18:48:32.530Z,1.95
2022-11-12T18:50:59.581Z,2.13
2022-11-12T18:53:27.345Z,1.40
2022-11-12T18:55:54.740Z,1.90
2022-11-12T18:58:20.691Z,1.70
2022-11-12T19:00:47.405Z,1.83
2022-11-12T19:03:13.517Z,1.30
2022-11-12T19:05:39.309Z,1.70
2022-11-12T19:08:05.216Z,3.67
2022-11-12T19:10:34.233Z,1.30
2022-11-12T19:13:03.118Z,1.00
2022-11-12T19:15:33.506Z,0.90
2022-11-12T19:18:03.231Z,0.80
2022-11-12T19:20:29.981Z,0.70
2022-11-12T19:22:56.106Z,1.10
2022-11-12T19:25:22.110Z,0.70
2022-11-12T19:27:48.049Z,0.90
2022-11-12T19:30:14.050Z,0.80
2022-11-12T19:32:39.854Z,1.00
2022-11-12T19:35:06.752Z,1.23
2022-11-12T19:37:33.881Z,0.80
2022-11-12T19:40:06.296Z,0.70
2022-11-12T19:42:32.400Z,0.90
2022-11-12T19:44:58.276Z,0.90
2022-11-12T19:47:24.056Z,0.90
2022-11-12T19:49:49.895Z,0.68
2022-11-12T19:52:15.655Z,1.00
2022-11-12T19:54:41.418Z,1.13
2022-11-12T19:57:07.221Z,1.35
2022-11-12T19:59:33.017Z,1.23
2022-11-12T20:01:58.750Z,1.00
2022-11-12T20:04:24.648Z,0.90
2022-11-12T20:06:50.539Z,1.02
2022-11-12T20:09:16.420Z,0.70
2022-11-12T20:11:42.210Z,0.57
2022-11-12T20:14:08.031Z,0.73
2022-11-12T20:16:33.851Z,0.80
2022-11-12T20:19:00.754Z,0.80
2022-11-12T20:21:27.039Z,0.70
2022-11-12T20:23:52.909Z,1.00
2022-11-12T20:26:18.998Z,0.95
2022-11-12T20:28:44.817Z,5.70
2022-11-12T20:31:13.041Z,7.90
2022-11-12T20:33:42.419Z,5.45
2022-11-12T20:36:15.764Z,2.38
2022-11-12T20:38:43.464Z,1.42
2022-11-12T20:41:22.585Z,1.05
2022-11-12T20:43:52.307Z,0.65
2022-11-12T20:46:18.101Z,0.80
2022-11-12T20:48:43.985Z,1.10
2022-11-12T20:51:26.105Z,1.02
2022-11-12T20:53:58.459Z,1.00
2022-11-12T20:56:28.124Z,0.73
2022-11-12T20:58:53.947Z,0.90
2022-11-12T21:01:21.342Z,0.80
2022-11-12T21:03:47.586Z,1.10
2022-11-12T21:06:15.909Z,1.10
2022-11-12T21:08:42.876Z,0.80
2022-11-12T21:11:14.175Z,0.80
2022-11-12T21:13:40.826Z,0.80
2022-11-12T21:16:07.575Z,0.82
2022-11-12T21:18:34.925Z,0.70
2022-11-12T21:21:12.695Z,0.77
2022-11-12T21:23:44.031Z,0.90
2022-11-12T21:26:18.647Z,0.90
2022-11-12T21:28:49.590Z,0.80
2022-11-12T21:31:18.904Z,0.70
2022-11-12T21:33:49.013Z,0.80
2022-11-12T21:36:16.538Z,0.95
2022-11-12T21:38:43.565Z,1.23
2022-11-12T21:41:21.330Z,0.77
2022-11-12T21:43:47.863Z,0.77
2022-11-12T21:46:36.736Z,0.80
2022-11-12T21:49:03.494Z,0.77
2022-11-12T21:51:31.160Z,0.90
2022-11-12T21:54:02.884Z,0.80
2022-11-12T21:56:29.095Z,0.80
2022-11-12T21:58:59.681Z,0.70
2022-11-12T22:01:27.963Z,0.60
2022-11-12T22:03:55.221Z,0.70
2022-11-12T22:06:23.729Z,0.60
2022-11-12T22:08:54.116Z,0.75
2022-11-12T22:11:20.715Z,0.60
2022-11-12T22:13:46.716Z,0.73
2022-11-12T22:16:18.573Z,0.90
2022-11-12T22:18:50.044Z,1.30
2022-11-12T22:21:18.785Z,0.80
2022-11-12T22:23:45.078Z,0.70
2022-11-12T22:26:13.678Z,0.80
2022-11-12T22:28:39.902Z,0.63
2022-11-12T22:31:09.049Z,0.90
2022-11-12T22:33:34.883Z,0.95
2022-11-12T22:36:06.062Z,0.90
2022-11-12T22:38:36.604Z,1.30
2022-11-12T22:41:05.240Z,1.13
2022-11-12T22:43:31.966Z,1.00
2022-11-12T22:46:09.609Z,0.80
2022-11-12T22:48:36.163Z,1.10
2022-11-12T22:51:05.108Z,0.88
2022-11-12T22:53:31.104Z,0.82
2022-11-12T22:56:05.384Z,0.73
2022-11-12T22:58:37.991Z,0.75
2022-11-12T23:01:07.788Z,0.70
2022-11-12T23:03:34.816Z,0.50
2022-11-12T23:06:03.606Z,0.60
2022-11-12T23:08:30.376Z,0.50
2022-11-12T23:10:56.802Z,0.45
2022-11-12T23:13:25.848Z,0.40
2022-11-12T23:15:51.641Z,0.40
2022-11-12T23:18:17.435Z,0.50
2022-11-12T23:20:43.279Z,0.50
2022-11-12T23:23:09.142Z,0.65
2022-11-12T23:25:35.423Z,0.50
2022-11-12T23:28:01.243Z,0.45
2022-11-12T23:30:27.061Z,0.50
2022-11-12T23:32:53.091Z,0.60
2022-11-12T23:35:18.846Z,0.60
2022-11-12T23:37:44.595Z,0.60
2022-11-12T23:40:10.519Z,0.50
2022-11-12T23:42:36.248Z,0.77
2022-11-12T23:45:02.199Z,0.60
2022-11-12T23:47:27.982Z,0.60
2022-11-12T23:49:53.737Z,0.60
2022-11-12T23:52:19.471Z,0.60
2022-11-12T23:54:45.212Z,0.82
2022-11-12T23:57:10.974Z,0.70
2022-11-12T23:59:36.749Z,0.70
